sensor_id;sensor_type;location;lat;lon;timestamp;pressure;altitude;pressure_sealevel;temperature
73685;BMP280;61985;51.070;14.064;2022-09-16T00:01:17;97840.88;;;11.66
73685;BMP280;61985;51.070;14.064;2022-09-16T00:03:43;97838.19;;;11.66
73685;BMP280;61985;51.070;14.064;2022-09-16T00:06:23;97840.88;;;11.66
73685;BMP280;61985;51.070;14.064;2022-09-16T00:08:49;97845.22;;;11.64
73685;BMP280;61985;51.070;14.064;2022-09-16T00:11:16;97836.03;;;11.61
73685;BMP280;61985;51.070;14.064;2022-09-16T00:13:42;97837.72;;;11.59
73685;BMP280;61985;51.070;14.064;2022-09-16T00:16:11;97828.72;;;11.53
73685;BMP280;61985;51.070;14.064;2022-09-16T00:18:36;97836.38;;;11.54
73685;BMP280;61985;51.070;14.064;2022-09-16T00:21:06;97824.06;;;11.53
73685;BMP280;61985;51.070;14.064;2022-09-16T00:23:32;97829.75;;;11.55
73685;BMP280;61985;51.070;14.064;2022-09-16T00:25:57;97830.97;;;11.54
73685;BMP280;61985;51.070;14.064;2022-09-16T00:28:23;97823.78;;;11.51
73685;BMP280;61985;51.070;14.064;2022-09-16T00:30:48;97827.97;;;11.52
73685;BMP280;61985;51.070;14.064;2022-09-16T00:33:14;97824.25;;;11.50
73685;BMP280;61985;51.070;14.064;2022-09-16T00:35:40;97826.75;;;11.53
73685;BMP280;61985;51.070;14.064;2022-09-16T00:38:05;97821.09;;;11.51
73685;BMP280;61985;51.070;14.064;2022-09-16T00:40:32;97823.47;;;11.49
73685;BMP280;61985;51.070;14.064;2022-09-16T00:42:57;97832.78;;;11.48
73685;BMP280;61985;51.070;14.064;2022-09-16T00:45:26;97829.63;;;11.50
73685;BMP280;61985;51.070;14.064;2022-09-16T00:47:59;97827.38;;;11.48
73685;BMP280;61985;51.070;14.064;2022-09-16T00:50:36;97828.88;;;11.49
73685;BMP280;61985;51.070;14.064;2022-09-16T00:53:03;97836.50;;;11.51
73685;BMP280;61985;51.070;14.064;2022-09-16T00:55:33;97829.19;;;11.51
73685;BMP280;61985;51.070;14.064;2022-09-16T00:58:13;97833.22;;;11.56
73685;BMP280;61985;51.070;14.064;2022-09-16T01:00:40;97840.56;;;11.55
73685;BMP280;61985;51.070;14.064;2022-09-16T01:03:05;97834.41;;;11.55
73685;BMP280;61985;51.070;14.064;2022-09-16T01:05:31;97835.94;;;11.56
73685;BMP280;61985;51.070;14.064;2022-09-16T01:07:58;97843.25;;;11.55
73685;BMP280;61985;51.070;14.064;2022-09-16T01:10:24;97842.69;;;11.60
73685;BMP280;61985;51.070;14.064;2022-09-16T01:12:54;97842.69;;;11.60
73685;BMP280;61985;51.070;14.064;2022-09-16T01:15:41;97847.91;;;11.64
73685;BMP280;61985;51.070;14.064;2022-09-16T01:32:14;97842.97;;;11.62
73685;BMP280;61985;51.070;14.064;2022-09-16T01:40:23;97839.06;;;11.73
73685;BMP280;61985;51.070;14.064;2022-09-16T01:46:01;97848.97;;;11.66
73685;BMP280;61985;51.070;14.064;2022-09-16T01:48:41;97849.88;;;11.63
73685;BMP280;61985;51.070;14.064;2022-09-16T01:51:16;97842.97;;;11.62
73685;BMP280;61985;51.070;14.064;2022-09-16T01:53:49;97839.22;;;11.60
73685;BMP280;61985;51.070;14.064;2022-09-16T01:59:02;97846.41;;;11.63
73685;BMP280;61985;51.070;14.064;2022-09-16T02:04:39;97853.91;;;11.59
73685;BMP280;61985;51.070;14.064;2022-09-16T02:07:09;97848.19;;;11.57
73685;BMP280;61985;51.070;14.064;2022-09-16T02:09:40;97847.91;;;11.55
73685;BMP280;61985;51.070;14.064;2022-09-16T02:12:11;97839.06;;;11.54
73685;BMP280;61985;51.070;14.064;2022-09-16T02:14:40;97838.16;;;11.48
73685;BMP280;61985;51.070;14.064;2022-09-16T02:17:09;97858.53;;;11.49
73685;BMP280;61985;51.070;14.064;2022-09-16T02:19:41;97853.75;;;11.53
73685;BMP280;61985;51.070;14.064;2022-09-16T02:22:13;97856.00;;;11.55
73685;BMP280;61985;51.070;14.064;2022-09-16T02:24:39;97855.25;;;11.54
73685;BMP280;61985;51.070;14.064;2022-09-16T02:27:10;97854.03;;;11.55
73685;BMP280;61985;51.070;14.064;2022-09-16T02:29:48;97855.41;;;11.51
73685;BMP280;61985;51.070;14.064;2022-09-16T02:32:14;97855.41;;;11.51
73685;BMP280;61985;51.070;14.064;2022-09-16T02:34:44;97862.88;;;11.46
73685;BMP280;61985;51.070;14.064;2022-09-16T02:37:32;97845.66;;;11.44
73685;BMP280;61985;51.070;14.064;2022-09-16T02:40:04;97851.66;;;11.39
73685;BMP280;61985;51.070;14.064;2022-09-16T02:42:32;97847.16;;;11.36
73685;BMP280;61985;51.070;14.064;2022-09-16T02:44:59;97852.38;;;11.39
73685;BMP280;61985;51.070;14.064;2022-09-16T02:50:32;97848.94;;;11.30
73685;BMP280;61985;51.070;14.064;2022-09-16T02:53:18;97846.53;;;11.32
73685;BMP280;61985;51.070;14.064;2022-09-16T02:55:55;97849.41;;;11.28
73685;BMP280;61985;51.070;14.064;2022-09-16T02:58:22;97851.94;;;11.32
73685;BMP280;61985;51.070;14.064;2022-09-16T03:00:51;97843.84;;;11.32
73685;BMP280;61985;51.070;14.064;2022-09-16T03:03:17;97842.31;;;11.31
73685;BMP280;61985;51.070;14.064;2022-09-16T03:08:34;97845.03;;;11.31
73685;BMP280;61985;51.070;14.064;2022-09-16T03:11:09;97848.19;;;11.29
73685;BMP280;61985;51.070;14.064;2022-09-16T03:13:54;97843.69;;;11.26
73685;BMP280;61985;51.070;14.064;2022-09-16T03:24:44;97839.34;;;11.28
73685;BMP280;61985;51.070;14.064;2022-09-16T03:27:18;97829.44;;;11.25
73685;BMP280;61985;51.070;14.064;2022-09-16T03:32:21;97839.34;;;11.28
73685;BMP280;61985;51.070;14.064;2022-09-16T03:34:51;97838.72;;;11.24
73685;BMP280;61985;51.070;14.064;2022-09-16T03:37:18;97828.38;;;11.23
73685;BMP280;61985;51.070;14.064;2022-09-16T03:39:50;97834.53;;;11.23
73685;BMP280;61985;51.070;14.064;2022-09-16T03:42:17;97832.28;;;11.22
73685;BMP280;61985;51.070;14.064;2022-09-16T03:44:42;97841.41;;;11.24
73685;BMP280;61985;51.070;14.064;2022-09-16T03:47:07;97830.63;;;11.24
73685;BMP280;61985;51.070;14.064;2022-09-16T03:49:34;97827.50;;;11.26
73685;BMP280;61985;51.070;14.064;2022-09-16T03:51:59;97825.25;;;11.24
73685;BMP280;61985;51.070;14.064;2022-09-16T03:54:25;97824.94;;;11.22
73685;BMP280;61985;51.070;14.064;2022-09-16T03:56:50;97834.09;;;11.25
73685;BMP280;61985;51.070;14.064;2022-09-16T03:59:16;97831.41;;;11.25
73685;BMP280;61985;51.070;14.064;2022-09-16T04:01:42;97825.13;;;11.19
73685;BMP280;61985;51.070;14.064;2022-09-16T04:04:07;97823.16;;;11.19
73685;BMP280;61985;51.070;14.064;2022-09-16T04:06:33;97830.19;;;11.17
73685;BMP280;61985;51.070;14.064;2022-09-16T04:09:02;97828.69;;;11.16
73685;BMP280;61985;51.070;14.064;2022-09-16T04:11:27;97817.31;;;11.12
73685;BMP280;61985;51.070;14.064;2022-09-16T04:13:55;97827.91;;;11.15
73685;BMP280;61985;51.070;14.064;2022-09-16T04:16:21;97828.97;;;11.08
73685;BMP280;61985;51.070;14.064;2022-09-16T04:18:46;97830.94;;;11.08
73685;BMP280;61985;51.070;14.064;2022-09-16T04:21:12;97826.72;;;11.07
73685;BMP280;61985;51.070;14.064;2022-09-16T04:23:37;97825.22;;;11.06
73685;BMP280;61985;51.070;14.064;2022-09-16T04:26:03;97827.31;;;11.02
73685;BMP280;61985;51.070;14.064;2022-09-16T04:28:30;97820.25;;;10.95
73685;BMP280;61985;51.070;14.064;2022-09-16T04:31:00;97828.34;;;10.95
73685;BMP280;61985;51.070;14.064;2022-09-16T04:33:31;97831.47;;;10.94
73685;BMP280;61985;51.070;14.064;2022-09-16T04:36:10;97831.81;;;10.96
73685;BMP280;61985;51.070;14.064;2022-09-16T04:38:37;97835.69;;;10.95
73685;BMP280;61985;51.070;14.064;2022-09-16T04:41:04;97835.69;;;10.95
73685;BMP280;61985;51.070;14.064;2022-09-16T04:43:30;97842.41;;;10.99
73685;BMP280;61985;51.070;14.064;2022-09-16T04:45:56;97847.81;;;10.99
73685;BMP280;61985;51.070;14.064;2022-09-16T04:48:21;97838.53;;;11.00
73685;BMP280;61985;51.070;14.064;2022-09-16T04:50:46;97838.09;;;11.02
73685;BMP280;61985;51.070;14.064;2022-09-16T04:53:12;97847.69;;;11.03
73685;BMP280;61985;51.070;14.064;2022-09-16T04:55:37;97845.31;;;11.05
73685;BMP280;61985;51.070;14.064;2022-09-16T04:58:03;97839.16;;;11.04
73685;BMP280;61985;51.070;14.064;2022-09-16T05:00:29;97834.06;;;11.06
73685;BMP280;61985;51.070;14.064;2022-09-16T05:02:54;97836.75;;;11.06
73685;BMP280;61985;51.070;14.064;2022-09-16T05:05:20;97830.94;;;11.08
73685;BMP280;61985;51.070;14.064;2022-09-16T05:07:45;97834.38;;;11.08
73685;BMP280;61985;51.070;14.064;2022-09-16T05:10:11;97842.00;;;11.10
73685;BMP280;61985;51.070;14.064;2022-09-16T05:12:36;97846.66;;;11.10
73685;BMP280;61985;51.070;14.064;2022-09-16T05:15:02;97842.31;;;11.12
73685;BMP280;61985;51.070;14.064;2022-09-16T05:17:30;97839.63;;;11.12
73685;BMP280;61985;51.070;14.064;2022-09-16T05:19:56;97842.00;;;11.10
73685;BMP280;61985;51.070;14.064;2022-09-16T05:22:22;97840.50;;;11.09
73685;BMP280;61985;51.070;14.064;2022-09-16T05:24:47;97841.25;;;11.10
73685;BMP280;61985;51.070;14.064;2022-09-16T05:27:13;97843.63;;;11.07
73685;BMP280;61985;51.070;14.064;2022-09-16T05:29:38;97843.53;;;11.11
73685;BMP280;61985;51.070;14.064;2022-09-16T05:32:04;97840.06;;;11.11
73685;BMP280;61985;51.070;14.064;2022-09-16T05:34:29;97847.41;;;11.10
73685;BMP280;61985;51.070;14.064;2022-09-16T05:36:55;97842.88;;;11.07
73685;BMP280;61985;51.070;14.064;2022-09-16T05:39:22;97840.50;;;11.09
73685;BMP280;61985;51.070;14.064;2022-09-16T05:41:48;97835.44;;;11.11
73685;BMP280;61985;51.070;14.064;2022-09-16T05:44:14;97839.94;;;11.05
73685;BMP280;61985;51.070;14.064;2022-09-16T05:46:42;97849.47;;;11.06
73685;BMP280;61985;51.070;14.064;2022-09-16T05:49:08;97847.38;;;11.01
73685;BMP280;61985;51.070;14.064;2022-09-16T05:51:36;97846.63;;;11.00
73685;BMP280;61985;51.070;14.064;2022-09-16T05:54:02;97843.50;;;11.02
73685;BMP280;61985;51.070;14.064;2022-09-16T05:56:28;97838.53;;;11.00
73685;BMP280;61985;51.070;14.064;2022-09-16T05:58:58;97840.81;;;11.02
73685;BMP280;61985;51.070;14.064;2022-09-16T06:01:28;97841.53;;;11.02
73685;BMP280;61985;51.070;14.064;2022-09-16T06:03:55;97848.28;;;11.07
73685;BMP280;61985;51.070;14.064;2022-09-16T06:08:48;97842.00;;;11.10
73685;BMP280;61985;51.070;14.064;2022-09-16T06:11:14;97836.63;;;11.10
73685;BMP280;61985;51.070;14.064;2022-09-16T06:14:01;97833.91;;;11.10
73685;BMP280;61985;51.070;14.064;2022-09-16T06:16:28;97832.09;;;11.07
73685;BMP280;61985;51.070;14.064;2022-09-16T06:18:57;97829.41;;;11.07
73685;BMP280;61985;51.070;14.064;2022-09-16T06:21:23;97840.94;;;11.07
73685;BMP280;61985;51.070;14.064;2022-09-16T06:23:49;97835.97;;;11.06
73685;BMP280;61985;51.070;14.064;2022-09-16T06:26:16;97837.06;;;11.08
73685;BMP280;61985;51.070;14.064;2022-09-16T06:28:43;97839.34;;;11.19
73685;BMP280;61985;51.070;14.064;2022-09-16T06:31:14;97831.69;;;11.18
73685;BMP280;61985;51.070;14.064;2022-09-16T06:33:40;97834.09;;;11.16
73685;BMP280;61985;51.070;14.064;2022-09-16T06:36:11;97833.66;;;11.17
73685;BMP280;61985;51.070;14.064;2022-09-16T06:38:36;97836.63;;;11.19
73685;BMP280;61985;51.070;14.064;2022-09-16T06:41:04;97845.34;;;11.33
73685;BMP280;61985;51.070;14.064;2022-09-16T06:43:31;97845.94;;;11.37
73685;BMP280;61985;51.070;14.064;2022-09-16T06:46:01;97842.97;;;11.44
73685;BMP280;61985;51.070;14.064;2022-09-16T06:48:28;97839.81;;;11.45
73685;BMP280;61985;51.070;14.064;2022-09-16T06:51:01;97854.94;;;11.52
73685;BMP280;61985;51.070;14.064;2022-09-16T06:53:27;97852.84;;;11.56
73685;BMP280;61985;51.070;14.064;2022-09-16T06:55:54;97849.09;;;11.63
73685;BMP280;61985;51.070;14.064;2022-09-16T06:58:20;97850.59;;;11.64
73685;BMP280;61985;51.070;14.064;2022-09-16T07:00:45;97845.50;;;11.66
73685;BMP280;61985;51.070;14.064;2022-09-16T07:03:10;97851.94;;;11.68
73685;BMP280;61985;51.070;14.064;2022-09-16T07:05:37;97857.03;;;11.76
73685;BMP280;61985;51.070;14.064;2022-09-16T07:08:03;97850.00;;;11.78
73685;BMP280;61985;51.070;14.064;2022-09-16T07:10:28;97846.22;;;11.85
73685;BMP280;61985;51.070;14.064;2022-09-16T07:12:54;97848.91;;;11.85
73685;BMP280;61985;51.070;14.064;2022-09-16T07:15:20;97851.94;;;11.87
73685;BMP280;61985;51.070;14.064;2022-09-16T07:17:45;97855.69;;;11.90
73685;BMP280;61985;51.070;14.064;2022-09-16T07:20:10;97849.06;;;12.00
73685;BMP280;61985;51.070;14.064;2022-09-16T07:22:36;97852.50;;;12.10
73685;BMP280;61985;51.070;14.064;2022-09-16T07:25:01;97849.19;;;12.05
73685;BMP280;61985;51.070;14.064;2022-09-16T07:27:26;97851.00;;;12.09
73685;BMP280;61985;51.070;14.064;2022-09-16T07:29:53;97856.41;;;12.09
73685;BMP280;61985;51.070;14.064;2022-09-16T07:32:20;97850.25;;;12.08
73685;BMP280;61985;51.070;14.064;2022-09-16T07:34:46;97862.72;;;12.05
73685;BMP280;61985;51.070;14.064;2022-09-16T07:37:11;97850.69;;;12.06
73685;BMP280;61985;51.070;14.064;2022-09-16T07:39:37;97859.66;;;12.22
73685;BMP280;61985;51.070;14.064;2022-09-16T07:42:03;97864.59;;;12.33
73685;BMP280;61985;51.070;14.064;2022-09-16T07:44:29;97855.88;;;12.38
73685;BMP280;61985;51.070;14.064;2022-09-16T07:46:55;97859.16;;;12.42
73685;BMP280;61985;51.070;14.064;2022-09-16T07:51:56;97854.50;;;12.52
73685;BMP280;61985;51.070;14.064;2022-09-16T07:54:22;97851.16;;;12.57
73685;BMP280;61985;51.070;14.064;2022-09-16T07:56:47;97862.69;;;12.57
73685;BMP280;61985;51.070;14.064;2022-09-16T07:59:17;97867.63;;;12.68
73685;BMP280;61985;51.070;14.064;2022-09-16T08:01:42;97864.06;;;12.62
73685;BMP280;61985;51.070;14.064;2022-09-16T08:04:08;97850.69;;;12.58
73685;BMP280;61985;51.070;14.064;2022-09-16T08:06:36;97861.38;;;12.53
73685;BMP280;61985;51.070;14.064;2022-09-16T08:09:02;97860.84;;;12.39
73685;BMP280;61985;51.070;14.064;2022-09-16T08:11:29;97860.53;;;12.37
73685;BMP280;61985;51.070;14.064;2022-09-16T08:13:57;97861.75;;;12.27
73685;BMP280;61985;51.070;14.064;2022-09-16T08:16:24;97862.69;;;12.24
73685;BMP280;61985;51.070;14.064;2022-09-16T08:18:52;97870.91;;;12.30
73685;BMP280;61985;51.070;14.064;2022-09-16T08:21:20;97851.03;;;12.42
73685;BMP280;61985;51.070;14.064;2022-09-16T08:23:46;97854.16;;;12.59
73685;BMP280;61985;51.070;14.064;2022-09-16T08:26:13;97855.09;;;12.80
73685;BMP280;61985;51.070;14.064;2022-09-16T08:28:40;97851.72;;;12.94
73685;BMP280;61985;51.070;14.064;2022-09-16T08:31:06;97843.31;;;12.92
73685;BMP280;61985;51.070;14.064;2022-09-16T08:33:32;97844.94;;;12.99
73685;BMP280;61985;51.070;14.064;2022-09-16T08:36:04;97847.63;;;12.99
73685;BMP280;61985;51.070;14.064;2022-09-16T08:38:31;97858.13;;;13.06
73685;BMP280;61985;51.070;14.064;2022-09-16T08:44:13;97851.34;;;13.25
73685;BMP280;61985;51.070;14.064;2022-09-16T08:47:01;97844.28;;;13.28
73685;BMP280;61985;51.070;14.064;2022-09-16T08:49:34;97854.06;;;13.25
73685;BMP280;61985;51.070;14.064;2022-09-16T08:52:08;97857.56;;;13.41
73685;BMP280;61985;51.070;14.064;2022-09-16T08:54:39;97847.97;;;13.40
73685;BMP280;61985;51.070;14.064;2022-09-16T08:57:13;97851.59;;;13.52
73685;BMP280;61985;51.070;14.064;2022-09-16T08:59:43;97848.38;;;13.62
73685;BMP280;61985;51.070;14.064;2022-09-16T09:08:08;97862.03;;;13.68
73685;BMP280;61985;51.070;14.064;2022-09-16T09:26:49;97841.88;;;13.06
73685;BMP280;61985;51.070;14.064;2022-09-16T09:35:14;97853.16;;;13.29
73685;BMP280;61985;51.070;14.064;2022-09-16T09:37:55;97846.06;;;13.31
73685;BMP280;61985;51.070;14.064;2022-09-16T09:40:36;97849.06;;;13.33
73685;BMP280;61985;51.070;14.064;2022-09-16T09:43:24;97845.94;;;13.50
73685;BMP280;61985;51.070;14.064;2022-09-16T09:45:58;97850.91;;;13.66
73685;BMP280;61985;51.070;14.064;2022-09-16T09:48:34;97844.66;;;13.75
73685;BMP280;61985;51.070;14.064;2022-09-16T09:51:10;97835.50;;;13.87
73685;BMP280;61985;51.070;14.064;2022-09-16T09:53:44;97839.13;;;13.84
73685;BMP280;61985;51.070;14.064;2022-09-16T09:56:20;97827.78;;;13.80
73685;BMP280;61985;51.070;14.064;2022-09-16T09:59:14;97833.47;;;13.82
73685;BMP280;61985;51.070;14.064;2022-09-16T10:01:43;97832.25;;;13.83
73685;BMP280;61985;51.070;14.064;2022-09-16T10:04:14;97828.78;;;13.82
73685;BMP280;61985;51.070;14.064;2022-09-16T10:06:40;97821.97;;;13.87
73685;BMP280;61985;51.070;14.064;2022-09-16T10:11:54;97820.94;;;13.99
73685;BMP280;61985;51.070;14.064;2022-09-16T10:14:31;97817.59;;;14.04
73685;BMP280;61985;51.070;14.064;2022-09-16T10:17:02;97819.63;;;14.10
73685;BMP280;61985;51.070;14.064;2022-09-16T10:19:30;97813.97;;;14.43
73685;BMP280;61985;51.070;14.064;2022-09-16T10:22:09;97811.28;;;14.63
73685;BMP280;61985;51.070;14.064;2022-09-16T10:27:23;97813.19;;;15.19
73685;BMP280;61985;51.070;14.064;2022-09-16T10:30:15;97812.47;;;15.24
73685;BMP280;61985;51.070;14.064;2022-09-16T10:32:49;97823.56;;;14.79
73685;BMP280;61985;51.070;14.064;2022-09-16T10:35:23;97842.97;;;14.22
73685;BMP280;61985;51.070;14.064;2022-09-16T10:37:54;97846.81;;;13.71
73685;BMP280;61985;51.070;14.064;2022-09-16T10:40:21;97842.91;;;13.33
73685;BMP280;61985;51.070;14.064;2022-09-16T10:42:49;97854.59;;;12.91
73685;BMP280;61985;51.070;14.064;2022-09-16T10:45:23;97865.06;;;12.74
73685;BMP280;61985;51.070;14.064;2022-09-16T10:47:52;97864.88;;;12.44
73685;BMP280;61985;51.070;14.064;2022-09-16T10:50:19;97857.38;;;12.39
73685;BMP280;61985;51.070;14.064;2022-09-16T10:52:46;97857.28;;;12.24
73685;BMP280;61985;51.070;14.064;2022-09-16T10:55:20;97847.97;;;12.25
73685;BMP280;61985;51.070;14.064;2022-09-16T10:57:46;97839.31;;;12.12
73685;BMP280;61985;51.070;14.064;2022-09-16T11:00:16;97837.50;;;12.18
73685;BMP280;61985;51.070;14.064;2022-09-16T11:05:57;97833.06;;;12.39
73685;BMP280;61985;51.070;14.064;2022-09-16T11:10:58;97828.19;;;12.19
73685;BMP280;61985;51.070;14.064;2022-09-16T11:13:51;97830.59;;;12.17
73685;BMP280;61985;51.070;14.064;2022-09-16T11:16:23;97828.75;;;12.32
73685;BMP280;61985;51.070;14.064;2022-09-16T11:24:16;97830.97;;;12.76
73685;BMP280;61985;51.070;14.064;2022-09-16T11:27:12;97820.66;;;13.14
73685;BMP280;61985;51.070;14.064;2022-09-16T11:30:16;97822.19;;;13.30
73685;BMP280;61985;51.070;14.064;2022-09-16T11:33:20;97812.22;;;13.36
73685;BMP280;61985;51.070;14.064;2022-09-16T11:36:16;97812.66;;;13.88
73685;BMP280;61985;51.070;14.064;2022-09-16T11:45:02;97799.63;;;14.78
73685;BMP280;61985;51.070;14.064;2022-09-16T11:47:49;97804.56;;;15.20
73685;BMP280;61985;51.070;14.064;2022-09-16T11:50:26;97793.44;;;15.44
73685;BMP280;61985;51.070;14.064;2022-09-16T11:58:59;97808.25;;;14.97
73685;BMP280;61985;51.070;14.064;2022-09-16T12:01:38;97799.81;;;15.15
73685;BMP280;61985;51.070;14.064;2022-09-16T12:04:16;97794.72;;;15.49
73685;BMP280;61985;51.070;14.064;2022-09-16T12:06:55;97794.75;;;15.81
73685;BMP280;61985;51.070;14.064;2022-09-16T12:09:54;97795.03;;;15.57
73685;BMP280;61985;51.070;14.064;2022-09-16T12:12:23;97785.09;;;15.48
73685;BMP280;61985;51.070;14.064;2022-09-16T12:14:57;97801.75;;;15.61
73685;BMP280;61985;51.070;14.064;2022-09-16T12:17:25;97786.16;;;15.88
73685;BMP280;61985;51.070;14.064;2022-09-16T12:20:32;97784.72;;;15.35
73685;BMP280;61985;51.070;14.064;2022-09-16T12:23:19;97785.94;;;15.60
73685;BMP280;61985;51.070;14.064;2022-09-16T12:28:30;97778.72;;;15.83
73685;BMP280;61985;51.070;14.064;2022-09-16T12:31:15;97776.97;;;15.54
73685;BMP280;61985;51.070;14.064;2022-09-16T12:33:48;97773.78;;;15.29
73685;BMP280;61985;51.070;14.064;2022-09-16T12:36:20;97767.34;;;15.00
73685;BMP280;61985;51.070;14.064;2022-09-16T12:38:47;97767.91;;;14.84
73685;BMP280;61985;51.070;14.064;2022-09-16T12:47:38;97759.41;;;15.23
73685;BMP280;61985;51.070;14.064;2022-09-16T12:59:14;97748.63;;;15.92
73685;BMP280;61985;51.070;14.064;2022-09-16T13:01:47;97742.97;;;16.33
73685;BMP280;61985;51.070;14.064;2022-09-16T13:06:44;97755.66;;;15.41
73685;BMP280;61985;51.070;14.064;2022-09-16T13:09:18;97739.94;;;15.24
73685;BMP280;61985;51.070;14.064;2022-09-16T13:12:06;97748.97;;;15.10
73685;BMP280;61985;51.070;14.064;2022-09-16T13:14:42;97741.94;;;15.50
73685;BMP280;61985;51.070;14.064;2022-09-16T13:17:09;97749.50;;;15.40
73685;BMP280;61985;51.070;14.064;2022-09-16T13:19:50;97750.50;;;15.43
73685;BMP280;61985;51.070;14.064;2022-09-16T13:22:19;97740.72;;;15.51
73685;BMP280;61985;51.070;14.064;2022-09-16T13:24:49;97735.50;;;15.21
73685;BMP280;61985;51.070;14.064;2022-09-16T13:27:33;97738.00;;;14.99
73685;BMP280;61985;51.070;14.064;2022-09-16T13:37:42;97726.41;;;14.78
73685;BMP280;61985;51.070;14.064;2022-09-16T13:40:20;97725.34;;;14.70
73685;BMP280;61985;51.070;14.064;2022-09-16T13:42:46;97730.75;;;14.70
73685;BMP280;61985;51.070;14.064;2022-09-16T13:45:31;97726.63;;;14.54
73685;BMP280;61985;51.070;14.064;2022-09-16T13:48:18;97726.72;;;14.39
73685;BMP280;61985;51.070;14.064;2022-09-16T13:50:56;97737.19;;;14.31
73685;BMP280;61985;51.070;14.064;2022-09-16T13:53:31;97730.03;;;14.13
73685;BMP280;61985;51.070;14.064;2022-09-16T13:56:37;97724.22;;;13.85
73685;BMP280;61985;51.070;14.064;2022-09-16T14:04:54;97717.63;;;15.67
73685;BMP280;61985;51.070;14.064;2022-09-16T14:07:41;97724.72;;;16.02
73685;BMP280;61985;51.070;14.064;2022-09-16T14:15:24;97709.16;;;15.01
73685;BMP280;61985;51.070;14.064;2022-09-16T14:17:54;97714.81;;;14.77
73685;BMP280;61985;51.070;14.064;2022-09-16T14:20:23;97730.28;;;14.51
73685;BMP280;61985;51.070;14.064;2022-09-16T14:22:59;97729.25;;;14.27
73685;BMP280;61985;51.070;14.064;2022-09-16T14:25:27;97737.38;;;13.92
73685;BMP280;61985;51.070;14.064;2022-09-16T14:28:09;97743.44;;;13.87
73685;BMP280;61985;51.070;14.064;2022-09-16T14:30:51;97736.38;;;14.25
73685;BMP280;61985;51.070;14.064;2022-09-16T14:33:22;97737.31;;;14.42
73685;BMP280;61985;51.070;14.064;2022-09-16T14:35:51;97739.94;;;15.45
73685;BMP280;61985;51.070;14.064;2022-09-16T14:38:19;97742.47;;;16.40
73685;BMP280;61985;51.070;14.064;2022-09-16T14:40:45;97725.38;;;17.22
73685;BMP280;61985;51.070;14.064;2022-09-16T14:43:19;97728.09;;;17.79
73685;BMP280;61985;51.070;14.064;2022-09-16T14:45:49;97733.38;;;18.35
73685;BMP280;61985;51.070;14.064;2022-09-16T14:48:17;97727.00;;;18.63
73685;BMP280;61985;51.070;14.064;2022-09-16T14:50:46;97715.50;;;18.81
73685;BMP280;61985;51.070;14.064;2022-09-16T14:53:41;97722.38;;;18.52
73685;BMP280;61985;51.070;14.064;2022-09-16T14:56:16;97720.31;;;18.69
73685;BMP280;61985;51.070;14.064;2022-09-16T14:58:42;97722.22;;;18.80
73685;BMP280;61985;51.070;14.064;2022-09-16T15:01:16;97710.78;;;18.40
73685;BMP280;61985;51.070;14.064;2022-09-16T15:03:47;97711.41;;;18.57
73685;BMP280;61985;51.070;14.064;2022-09-16T15:06:17;97707.53;;;18.47
73685;BMP280;61985;51.070;14.064;2022-09-16T15:08:53;97713.53;;;18.34
73685;BMP280;61985;51.070;14.064;2022-09-16T15:11:26;97708.50;;;17.80
73685;BMP280;61985;51.070;14.064;2022-09-16T15:13:53;97704.06;;;16.98
73685;BMP280;61985;51.070;14.064;2022-09-16T15:16:20;97702.03;;;16.65
73685;BMP280;61985;51.070;14.064;2022-09-16T15:19:01;97696.91;;;16.18
73685;BMP280;61985;51.070;14.064;2022-09-16T15:21:35;97691.84;;;15.88
73685;BMP280;61985;51.070;14.064;2022-09-16T15:24:05;97702.34;;;15.69
73685;BMP280;61985;51.070;14.064;2022-09-16T15:26:41;97688.66;;;15.58
73685;BMP280;61985;51.070;14.064;2022-09-16T15:31:42;97687.41;;;15.22
73685;BMP280;61985;51.070;14.064;2022-09-16T15:36:49;97684.31;;;15.08
73685;BMP280;61985;51.070;14.064;2022-09-16T15:39:28;97688.72;;;15.06
73685;BMP280;61985;51.070;14.064;2022-09-16T15:44:57;97682.16;;;14.86
73685;BMP280;61985;51.070;14.064;2022-09-16T15:47:28;97688.44;;;14.78
73685;BMP280;61985;51.070;14.064;2022-09-16T15:50:11;97686.44;;;14.73
73685;BMP280;61985;51.070;14.064;2022-09-16T15:53:08;97687.38;;;14.70
73685;BMP280;61985;51.070;14.064;2022-09-16T15:55:57;97693.69;;;14.61
73685;BMP280;61985;51.070;14.064;2022-09-16T16:01:13;97698.44;;;14.45
73685;BMP280;61985;51.070;14.064;2022-09-16T16:06:09;97697.25;;;14.26
73685;BMP280;61985;51.070;14.064;2022-09-16T16:08:51;97692.94;;;14.19
73685;BMP280;61985;51.070;14.064;2022-09-16T16:11:18;97699.28;;;14.16
73685;BMP280;61985;51.070;14.064;2022-09-16T16:13:45;97697.81;;;14.15
73685;BMP280;61985;51.070;14.064;2022-09-16T16:16:11;97700.06;;;14.17
73685;BMP280;61985;51.070;14.064;2022-09-16T16:18:38;97701.34;;;14.21
73685;BMP280;61985;51.070;14.064;2022-09-16T16:21:13;97689.28;;;14.22
73685;BMP280;61985;51.070;14.064;2022-09-16T16:23:38;97689.22;;;14.17
73685;BMP280;61985;51.070;14.064;2022-09-16T16:26:05;97685.59;;;14.05
73685;BMP280;61985;51.070;14.064;2022-09-16T16:28:32;97690.19;;;13.99
73685;BMP280;61985;51.070;14.064;2022-09-16T16:31:14;97699.16;;;13.90
73685;BMP280;61985;51.070;14.064;2022-09-16T16:33:44;97699.56;;;13.83
73685;BMP280;61985;51.070;14.064;2022-09-16T16:36:12;97701.44;;;13.77
73685;BMP280;61985;51.070;14.064;2022-09-16T16:38:38;97697.91;;;13.71
73685;BMP280;61985;51.070;14.064;2022-09-16T16:41:04;97695.19;;;13.71
73685;BMP280;61985;51.070;14.064;2022-09-16T16:43:31;97697.34;;;13.66
73685;BMP280;61985;51.070;14.064;2022-09-16T16:45:56;97703.81;;;13.54
73685;BMP280;61985;51.070;14.064;2022-09-16T16:48:23;97695.88;;;13.51
73685;BMP280;61985;51.070;14.064;2022-09-16T16:51:02;97697.91;;;13.41
73685;BMP280;61985;51.070;14.064;2022-09-16T16:53:28;97700.56;;;13.35
73685;BMP280;61985;51.070;14.064;2022-09-16T16:56:04;97701.38;;;13.26
73685;BMP280;61985;51.070;14.064;2022-09-16T16:58:31;97706.84;;;13.17
73685;BMP280;61985;51.070;14.064;2022-09-16T17:01:08;97697.91;;;13.11